Time;durP1;ratioP1;P1;durP2;ratioP2;P2;SDS_P1;SDS_P2;PMS_P1;PMS_P2;Temp;Humidity;BMP_temperature;BMP_pressure;BME280_temperature;BME280_humidity;BME280_pressure;Samples;Min_cycle;Max_cycle;Signal;HPM_P1;HPM_P2
2021/01/27 00:00:40;;;;;;;1.60;1.23;;;1.10;98.00;;;;;;5088072;28;20451;-65
2021/01/27 00:03:10;;;;;;;1.30;1.20;;;1.00;98.00;;;;;;5090470;28;20464;-64
2021/01/27 00:05:37;;;;;;;1.30;1.00;;;1.00;98.00;;;;;;5087702;28;20603;-65
2021/01/27 00:08:07;;;;;;;1.20;1.00;;;1.00;98.00;;;;;;5091119;28;20455;-64
2021/01/27 00:10:35;;;;;;;1.10;1.00;;;1.10;98.00;;;;;;5087949;28;20473;-65
2021/01/27 00:13:04;;;;;;;2.13;1.23;;;1.10;98.00;;;;;;5090937;28;20454;-65
2021/01/27 00:15:45;;;;;;;1.10;0.90;;;1.00;98.00;;;;;;5089882;28;20462;-64
2021/01/27 00:18:14;;;;;;;1.20;1.00;;;0.90;98.00;;;;;;5094416;28;20455;-64
2021/01/27 00:20:48;;;;;;;1.10;1.00;;;1.00;98.00;;;;;;5090196;28;20486;-64
2021/01/27 00:23:16;;;;;;;1.30;1.20;;;1.00;98.00;;;;;;5094330;28;20957;-65
2021/01/27 00:25:43;;;;;;;1.17;1.03;;;1.00;98.00;;;;;;5089867;28;20498;-65
2021/01/27 00:28:11;;;;;;;1.10;0.90;;;1.00;98.00;;;;;;5094339;28;20459;-65
2021/01/27 00:30:44;;;;;;;1.10;1.03;;;0.90;98.00;;;;;;5091285;28;20458;-65
2021/01/27 00:33:14;;;;;;;1.20;1.00;;;0.90;98.00;;;;;;5094118;28;20491;-64
2021/01/27 00:35:43;;;;;;;1.57;1.33;;;0.60;98.00;;;;;;5092427;28;20467;-66
2021/01/27 00:38:12;;;;;;;1.97;1.80;;;0.70;98.00;;;;;;5094140;28;20472;-65
2021/01/27 00:40:46;;;;;;;1.13;1.00;;;0.50;98.00;;;;;;5090998;28;20563;-64
2021/01/27 00:43:14;;;;;;;1.20;0.90;;;0.60;98.00;;;;;;5093921;28;20453;-64
2021/01/27 00:45:41;;;;;;;1.10;1.00;;;0.50;98.00;;;;;;5091170;28;20462;-66
2021/01/27 00:48:09;;;;;;;1.67;1.20;;;0.40;98.00;;;;;;5094028;28;20468;-65
2021/01/27 00:50:36;;;;;;;1.10;0.90;;;0.50;98.00;;;;;;5091666;28;20924;-66
2021/01/27 00:53:03;;;;;;;1.50;1.10;;;0.40;98.00;;;;;;5093904;28;20831;-65
2021/01/27 00:55:31;;;;;;;1.87;1.10;;;0.40;98.00;;;;;;5091582;28;20862;-66
2021/01/27 00:57:59;;;;;;;1.10;1.00;;;0.40;98.00;;;;;;5093836;28;20454;-64
2021/01/27 01:00:29;;;;;;;1.20;1.00;;;0.30;98.00;;;;;;5091209;28;20562;-66
2021/01/27 01:02:56;;;;;;;1.93;1.73;;;0.20;98.00;;;;;;5093814;28;20523;-64
2021/01/27 01:05:27;;;;;;;1.70;1.00;;;0.20;98.00;;;;;;5091748;28;20468;-65
2021/01/27 01:07:55;;;;;;;1.10;1.00;;;0.10;98.00;;;;;;5093755;28;20462;-65
2021/01/27 01:10:24;;;;;;;1.20;1.10;;;0.10;98.00;;;;;;5089989;28;20939;-64
2021/01/27 01:12:50;;;;;;;2.07;1.50;;;0.10;98.00;;;;;;5093622;28;20482;-64
2021/01/27 01:15:19;;;;;;;1.20;1.03;;;0.20;98.00;;;;;;5091168;28;20469;-64
2021/01/27 01:17:45;;;;;;;1.30;1.10;;;0.50;98.00;;;;;;5093501;28;20473;-65
2021/01/27 01:20:14;;;;;;;1.30;1.10;;;0.50;98.00;;;;;;5090988;28;20539;-64
2021/01/27 01:22:43;;;;;;;1.50;1.03;;;0.50;98.00;;;;;;5093390;28;20537;-66
2021/01/27 01:25:11;;;;;;;2.03;1.63;;;0.30;98.00;;;;;;5090854;28;20814;-65
2021/01/27 01:27:38;;;;;;;1.20;0.90;;;0.30;98.00;;;;;;5093127;28;21022;-64
2021/01/27 01:30:10;;;;;;;1.20;1.00;;;0.20;98.00;;;;;;5091305;28;20805;-65
2021/01/27 01:32:38;;;;;;;1.40;1.23;;;0.30;98.00;;;;;;5093133;28;20515;-65
2021/01/27 01:35:05;;;;;;;1.17;1.00;;;0.40;98.00;;;;;;5090892;28;20469;-64
2021/01/27 01:37:32;;;;;;;1.30;1.20;;;0.50;98.00;;;;;;5093078;28;20462;-65
2021/01/27 01:39:58;;;;;;;1.30;1.30;;;0.40;98.00;;;;;;5089627;28;20482;-64
2021/01/27 01:42:25;;;;;;;2.13;1.53;;;0.50;98.00;;;;;;5092934;28;20464;-64
2021/01/27 01:44:51;;;;;;;4.50;1.70;;;0.50;98.00;;;;;;5090759;28;20473;-65
2021/01/27 01:47:18;;;;;;;1.20;1.00;;;0.40;98.00;;;;;;5092883;28;20470;-64
2021/01/27 01:49:45;;;;;;;1.20;1.10;;;0.40;98.00;;;;;;5090763;28;20515;-64
2021/01/27 01:52:12;;;;;;;1.10;1.00;;;0.40;98.00;;;;;;5092820;28;20458;-67
2021/01/27 01:54:42;;;;;;;1.10;1.00;;;0.30;98.00;;;;;;5089301;28;20462;-66
2021/01/27 01:57:11;;;;;;;2.40;1.40;;;0.30;98.00;;;;;;5092886;28;20456;-65
2021/01/27 01:59:41;;;;;;;13.37;2.30;;;0.40;98.00;;;;;;5089293;28;21011;-67
2021/01/27 02:02:10;;;;;;;1.20;1.10;;;0.40;98.00;;;;;;5092746;28;20458;-66
2021/01/27 02:04:43;;;;;;;1.97;1.37;;;0.40;98.00;;;;;;5090469;28;20528;-65
2021/01/27 02:07:11;;;;;;;1.40;1.10;;;0.40;98.00;;;;;;5092663;28;20459;-64
2021/01/27 02:09:37;;;;;;;1.30;1.10;;;0.30;98.00;;;;;;5090342;28;20537;-66
2021/01/27 02:12:23;;;;;;;1.50;1.20;;;0.40;98.00;;;;;;5092704;28;20454;-64
2021/01/27 02:15:12;;;;;;;5.40;1.23;;;0.20;98.00;;;;;;5089163;28;21154;-64
2021/01/27 02:17:45;;;;;;;1.20;1.00;;;0.20;98.00;;;;;;5089666;28;20454;-64
2021/01/27 02:21:00;;;;;;;1.10;1.00;;;0.00;98.00;;;;;;5089907;28;20537;-67
2021/01/27 02:23:54;;;;;;;1.30;1.10;;;-0.10;98.00;;;;;;5092338;28;20462;-65
2021/01/27 02:26:55;;;;;;;2.07;1.33;;;-0.10;98.00;;;;;;5090054;28;20480;-64
2021/01/27 02:29:57;;;;;;;1.17;1.00;;;-0.20;98.00;;;;;;5079249;28;20461;-64
2021/01/27 02:32:59;;;;;;;1.10;1.00;;;-0.30;98.00;;;;;;5092088;28;20941;-65
2021/01/27 02:35:32;;;;;;;1.30;1.30;;;-0.20;98.00;;;;;;5079730;28;20340;-64
2021/01/27 02:38:04;;;;;;;2.23;1.33;;;-0.20;98.00;;;;;;5091243;28;20461;-64
2021/01/27 02:40:36;;;;;;;1.27;1.17;;;-0.10;98.00;;;;;;5089762;28;20492;-66
2021/01/27 02:43:11;;;;;;;1.10;0.90;;;-0.10;98.00;;;;;;5091989;28;20206;-64
2021/01/27 02:45:48;;;;;;;1.20;1.10;;;-0.10;98.00;;;;;;5089712;28;20489;-65
2021/01/27 02:48:21;;;;;;;1.20;1.07;;;-0.20;98.00;;;;;;5090592;28;20448;-66
2021/01/27 02:50:53;;;;;;;1.20;1.00;;;-0.40;98.00;;;;;;5089288;28;20456;-64
2021/01/27 02:53:22;;;;;;;1.20;1.00;;;-0.40;98.00;;;;;;5090375;28;20547;-64
2021/01/27 02:55:54;;;;;;;1.30;1.20;;;-0.40;98.00;;;;;;5089378;28;20475;-64
2021/01/27 02:58:25;;;;;;;1.30;1.20;;;-0.40;98.00;;;;;;5091692;28;20453;-64
2021/01/27 03:01:03;;;;;;;1.70;1.60;;;-0.30;98.00;;;;;;5089627;28;20934;-65
2021/01/27 03:03:35;;;;;;;1.10;1.00;;;-0.30;98.00;;;;;;5090592;28;20458;-65
2021/01/27 03:06:09;;;;;;;1.73;1.30;;;-0.20;98.00;;;;;;5089622;28;21053;-66
2021/01/27 03:08:40;;;;;;;3.20;2.07;;;-0.30;98.00;;;;;;5091736;28;20491;-65
2021/01/27 03:11:12;;;;;;;1.20;1.10;;;-0.10;98.00;;;;;;5089586;28;20490;-66
2021/01/27 03:13:40;;;;;;;1.40;1.30;;;0.00;98.00;;;;;;5091838;28;20449;-65
2021/01/27 03:16:13;;;;;;;1.10;0.90;;;0.00;98.00;;;;;;5089560;28;20880;-64
2021/01/27 03:18:45;;;;;;;3.10;1.93;;;-0.10;98.00;;;;;;5091492;28;20482;-66
2021/01/27 03:21:19;;;;;;;1.20;1.10;;;-0.10;98.00;;;;;;5089316;28;20451;-65
2021/01/27 03:23:51;;;;;;;1.13;1.00;;;-0.10;98.00;;;;;;5091413;28;20458;-64
2021/01/27 03:26:24;;;;;;;1.20;1.10;;;-0.10;98.00;;;;;;5089571;28;20488;-65
2021/01/27 03:28:56;;;;;;;1.20;0.90;;;-0.10;98.00;;;;;;5091663;28;20484;-63
2021/01/27 03:31:23;;;;;;;1.20;1.10;;;-0.20;98.00;;;;;;5089535;28;20450;-65
2021/01/27 03:33:55;;;;;;;4.10;1.37;;;-0.10;98.00;;;;;;5091510;28;20455;-65
2021/01/27 03:36:23;;;;;;;1.10;1.00;;;-0.30;98.00;;;;;;5089264;28;20454;-65
2021/01/27 03:38:52;;;;;;;1.10;0.90;;;-0.30;98.00;;;;;;5091394;28;20518;-64
2021/01/27 03:41:23;;;;;;;2.27;1.30;;;-0.20;98.00;;;;;;5089011;28;20551;-64
2021/01/27 03:44:00;;;;;;;1.20;1.00;;;-0.30;98.00;;;;;;5091027;28;20485;-65
2021/01/27 03:46:30;;;;;;;1.20;1.20;;;-0.30;98.00;;;;;;5089260;28;20926;-65
2021/01/27 03:49:00;;;;;;;1.20;1.00;;;-0.20;98.00;;;;;;5092036;28;20493;-63
2021/01/27 03:51:32;;;;;;;1.10;0.90;;;-0.30;98.00;;;;;;5093062;28;20488;-63
2021/01/27 03:54:03;;;;;;;1.10;1.00;;;-0.30;98.00;;;;;;5094969;28;20465;-64
2021/01/27 03:56:37;;;;;;;1.20;1.10;;;-0.30;98.00;;;;;;5092874;28;20464;-64
2021/01/27 03:59:08;;;;;;;1.10;1.00;;;-0.50;98.00;;;;;;5094884;28;20947;-65
2021/01/27 04:01:47;;;;;;;1.20;1.10;;;-0.50;98.00;;;;;;5092766;28;20491;-64
2021/01/27 04:04:15;;;;;;;1.30;1.20;;;-0.60;98.00;;;;;;5094871;28;20457;-64
2021/01/27 04:06:42;;;;;;;1.10;1.00;;;-0.60;98.00;;;;;;5092750;28;20207;-64
2021/01/27 04:09:10;;;;;;;1.20;1.10;;;-0.50;98.00;;;;;;5094724;28;21013;-66
2021/01/27 04:11:39;;;;;;;1.17;1.00;;;-0.40;98.00;;;;;;5092383;28;20516;-64
2021/01/27 04:14:06;;;;;;;1.20;1.00;;;-0.30;98.00;;;;;;5094791;28;20954;-65
2021/01/27 04:16:33;;;;;;;1.47;1.20;;;-0.40;98.00;;;;;;5092489;28;20510;-65
2021/01/27 04:19:01;;;;;;;1.20;1.10;;;-0.30;98.00;;;;;;5094407;28;20618;-64
2021/01/27 04:21:27;;;;;;;1.20;1.20;;;-0.40;98.00;;;;;;5092368;28;20543;-63
2021/01/27 04:23:55;;;;;;;1.37;1.20;;;-0.30;98.00;;;;;;5094361;28;20492;-64
2021/01/27 04:26:21;;;;;;;1.37;1.33;;;-0.30;98.00;;;;;;5092733;28;20490;-65
2021/01/27 04:28:48;;;;;;;1.20;1.17;;;-0.40;98.00;;;;;;5094483;28;20488;-64
2021/01/27 04:31:15;;;;;;;1.27;1.15;;;-0.50;98.00;;;;;;5092166;28;20807;-66
2021/01/27 04:33:41;;;;;;;1.40;1.30;;;-0.50;98.00;;;;;;5094569;28;20521;-63
2021/01/27 04:36:08;;;;;;;1.10;0.90;;;-0.50;98.00;;;;;;5091916;28;20468;-65
2021/01/27 04:38:36;;;;;;;1.20;1.00;;;-0.50;98.00;;;;;;5094305;28;20496;-64
2021/01/27 04:41:04;;;;;;;1.10;0.90;;;-0.50;98.00;;;;;;5091996;28;21034;-64
2021/01/27 04:43:33;;;;;;;1.23;1.20;;;-0.40;98.00;;;;;;5094438;28;20483;-64
2021/01/27 04:46:06;;;;;;;1.10;1.00;;;-0.60;98.00;;;;;;5091819;28;20872;-65
2021/01/27 04:48:40;;;;;;;2.60;2.07;;;-0.60;98.00;;;;;;5094252;28;20462;-64
2021/01/27 04:51:13;;;;;;;1.20;1.00;;;-0.70;98.00;;;;;;5091726;28;20963;-64
2021/01/27 04:53:50;;;;;;;1.13;0.90;;;-0.60;98.00;;;;;;5093755;28;20469;-63
2021/01/27 04:56:42;;;;;;;1.20;1.00;;;-0.60;98.00;;;;;;5091489;28;20673;-64
2021/01/27 04:59:13;;;;;;;1.10;0.90;;;-0.50;98.00;;;;;;5093671;28;20998;-65
2021/01/27 05:02:09;;;;;;;1.10;0.90;;;-0.60;98.00;;;;;;5090590;28;20485;-65
2021/01/27 05:04:49;;;;;;;1.30;1.10;;;-0.50;98.00;;;;;;5093776;28;20256;-65
2021/01/27 05:07:21;;;;;;;1.83;1.73;;;-0.50;98.00;;;;;;5092740;28;20460;-66
2021/01/27 05:09:54;;;;;;;1.10;1.00;;;-0.50;98.00;;;;;;5093752;28;20449;-64
2021/01/27 05:12:26;;;;;;;1.10;1.00;;;-0.50;98.00;;;;;;5093566;28;20660;-64
2021/01/27 05:14:54;;;;;;;1.20;1.10;;;-0.50;98.00;;;;;;5091180;28;20449;-65
2021/01/27 05:17:21;;;;;;;1.10;1.10;;;-0.50;98.00;;;;;;5093505;28;20997;-64
2021/01/27 05:19:49;;;;;;;1.10;1.00;;;-0.40;98.00;;;;;;5093126;28;20480;-64
2021/01/27 05:22:19;;;;;;;1.30;1.30;;;-0.40;98.00;;;;;;5091366;28;20447;-63
2021/01/27 05:24:46;;;;;;;3.83;1.52;;;-0.40;98.00;;;;;;5093185;28;20241;-65
2021/01/27 05:27:18;;;;;;;1.20;1.10;;;-0.40;98.00;;;;;;5089552;28;20209;-65
2021/01/27 05:29:52;;;;;;;1.17;1.00;;;-0.40;98.00;;;;;;5093558;28;20449;-65
2021/01/27 05:32:19;;;;;;;8.37;2.73;;;-0.30;98.00;;;;;;5091769;28;20943;-64
2021/01/27 05:34:48;;;;;;;1.20;1.00;;;-0.30;98.00;;;;;;5092022;28;20493;-64
2021/01/27 05:37:18;;;;;;;1.10;1.00;;;-0.40;98.00;;;;;;5090280;28;20453;-65
2021/01/27 05:39:47;;;;;;;1.10;1.00;;;-0.40;98.00;;;;;;5093097;28;20486;-64
2021/01/27 05:42:27;;;;;;;1.20;1.10;;;-0.50;98.00;;;;;;5089936;28;20466;-66
2021/01/27 05:44:59;;;;;;;1.20;1.07;;;-0.50;98.00;;;;;;5092443;28;20465;-65
2021/01/27 05:47:37;;;;;;;3.27;1.63;;;-0.60;98.00;;;;;;5092955;28;20452;-65
2021/01/27 05:50:38;;;;;;;1.20;1.00;;;-0.60;98.00;;;;;;5090368;28;20830;-65
2021/01/27 05:53:16;;;;;;;1.20;1.15;;;-0.50;98.00;;;;;;5072477;28;20494;-64
2021/01/27 05:56:05;;;;;;;1.17;0.98;;;-0.70;98.00;;;;;;5069805;28;20210;-64
2021/01/27 05:58:34;;;;;;;1.10;1.00;;;-0.90;98.00;;;;;;5072446;28;20666;-64
2021/01/27 06:01:31;;;;;;;1.10;1.00;;;-0.80;98.00;;;;;;5069351;28;20239;-64
2021/01/27 06:04:01;;;;;;;1.17;1.07;;;-0.70;98.00;;;;;;5048244;28;20470;-64
2021/01/27 06:06:31;;;;;;;1.60;1.60;;;-0.60;98.00;;;;;;5069664;28;20963;-64
2021/01/27 06:09:00;;;;;;;1.20;1.00;;;-0.60;98.00;;;;;;5071958;28;20651;-64
2021/01/27 06:11:27;;;;;;;1.35;1.30;;;-0.50;98.00;;;;;;5069752;28;20203;-64
2021/01/27 06:14:07;;;;;;;1.10;1.00;;;-0.40;98.00;;;;;;5071778;28;20317;-64
2021/01/27 06:16:43;;;;;;;2.10;1.40;;;-0.30;98.00;;;;;;5070146;28;20492;-65
2021/01/27 06:19:12;;;;;;;1.10;1.00;;;-0.20;98.00;;;;;;5072513;28;20491;-64
2021/01/27 06:22:07;;;;;;;2.13;1.97;;;-0.30;98.00;;;;;;5070031;28;20811;-65
2021/01/27 06:24:46;;;;;;;1.10;0.90;;;-0.30;98.00;;;;;;5072198;28;20458;-63
2021/01/27 06:27:40;;;;;;;1.20;1.00;;;-0.30;98.00;;;;;;5069640;28;20250;-65
2021/01/27 06:30:36;;;;;;;1.83;1.73;;;-0.50;98.00;;;;;;5069351;28;20460;-63
2021/01/27 06:33:33;;;;;;;1.20;1.00;;;-0.50;98.00;;;;;;5071880;28;20215;-66
2021/01/27 06:36:25;;;;;;;1.42;1.33;;;-0.70;98.00;;;;;;5069408;28;20212;-65
2021/01/27 06:39:22;;;;;;;1.20;1.10;;;-0.60;98.00;;;;;;5071879;28;20286;-65
2021/01/27 06:42:02;;;;;;;1.20;1.00;;;-0.50;98.00;;;;;;5069317;28;20485;-64
2021/01/27 06:44:50;;;;;;;1.20;1.10;;;-0.50;98.00;;;;;;5071696;28;20246;-65
2021/01/27 06:47:47;;;;;;;1.90;1.20;;;-0.40;98.00;;;;;;5069574;28;20582;-65
2021/01/27 06:50:29;;;;;;;1.20;1.00;;;-0.40;98.00;;;;;;5069610;28;20833;-63
2021/01/27 06:53:29;;;;;;;1.42;1.35;;;-0.40;98.00;;;;;;5071525;28;20212;-64
2021/01/27 06:56:10;;;;;;;1.63;1.52;;;-0.40;98.00;;;;;;5069385;28;20219;-65
2021/01/27 06:59:01;;;;;;;1.10;0.90;;;-0.30;98.00;;;;;;5071387;28;20234;-65
2021/01/27 07:01:53;;;;;;;1.10;1.00;;;-0.40;98.00;;;;;;5069295;28;20550;-64
2021/01/27 07:04:47;;;;;;;1.42;1.33;;;-0.40;98.00;;;;;;5071453;28;20206;-65
2021/01/27 07:07:59;;;;;;;1.70;1.60;;;-0.50;98.00;;;;;;5069253;28;20669;-64
2021/01/27 07:10:50;;;;;;;1.20;1.03;;;-0.50;98.00;;;;;;5026217;28;20559;-64
2021/01/27 07:13:35;;;;;;;1.20;1.15;;;-0.40;98.00;;;;;;5028587;28;20459;-64
2021/01/27 07:16:06;;;;;;;1.60;1.43;;;-0.50;98.00;;;;;;5061583;28;20230;-64
2021/01/27 07:19:08;;;;;;;2.75;1.75;;;-0.50;98.00;;;;;;5071336;28;20458;-64
2021/01/27 07:21:41;;;;;;;1.10;0.97;;;-0.50;98.00;;;;;;5065371;28;20199;-65
2021/01/27 07:24:17;;;;;;;1.57;1.47;;;-0.40;98.00;;;;;;5072633;28;20499;-64
2021/01/27 07:26:50;;;;;;;1.10;1.00;;;-0.30;98.00;;;;;;5073117;28;21258;-64
2021/01/27 07:29:21;;;;;;;1.48;1.42;;;-0.30;98.00;;;;;;5075086;28;20512;-64
2021/01/27 07:31:54;;;;;;;2.70;1.63;;;-0.20;98.00;;;;;;5073236;28;20199;-63
2021/01/27 07:34:28;;;;;;;1.67;1.48;;;-0.30;98.00;;;;;;5075687;28;20551;-64
2021/01/27 07:37:03;;;;;;;1.20;1.20;;;-0.20;98.00;;;;;;5072872;28;20248;-64
2021/01/27 07:39:41;;;;;;;1.63;1.53;;;-0.10;98.00;;;;;;5075305;28;20480;-64
2021/01/27 07:42:15;;;;;;;1.10;1.00;;;-0.10;98.00;;;;;;5072698;28;20473;-66
2021/01/27 07:44:45;;;;;;;1.50;1.10;;;-0.10;98.00;;;;;;5073397;28;20239;-64
2021/01/27 07:47:20;;;;;;;1.10;1.10;;;-0.10;98.00;;;;;;5072711;28;20454;-65
2021/01/27 07:49:58;;;;;;;1.20;1.10;;;-0.10;98.00;;;;;;5074956;28;20851;-64
2021/01/27 07:52:29;;;;;;;1.30;1.20;;;-0.10;98.00;;;;;;5072671;28;20487;-63
2021/01/27 07:55:05;;;;;;;2.90;1.70;;;0.00;98.00;;;;;;5073531;28;20465;-65
2021/01/27 07:57:46;;;;;;;1.20;1.20;;;0.00;98.00;;;;;;5073972;28;20466;-67
2021/01/27 08:00:18;;;;;;;1.70;1.37;;;0.00;98.00;;;;;;5072653;28;21039;-66
2021/01/27 08:03:13;;;;;;;1.10;1.00;;;0.00;98.00;;;;;;5074670;28;20492;-67
2021/01/27 08:05:42;;;;;;;1.20;1.00;;;0.30;98.00;;;;;;5071053;28;20976;-67
2021/01/27 08:08:16;;;;;;;1.53;1.47;;;0.20;98.00;;;;;;5074560;28;20486;-65
2021/01/27 08:10:44;;;;;;;1.20;1.20;;;0.30;98.00;;;;;;5072288;28;20458;-65
2021/01/27 08:13:33;;;;;;;2.23;1.47;;;0.30;98.00;;;;;;5073250;28;20493;-68
2021/01/27 08:16:03;;;;;;;1.23;1.07;;;0.30;98.00;;;;;;5072206;28;20512;-67
2021/01/27 08:18:29;;;;;;;1.60;1.30;;;0.40;98.00;;;;;;5074271;28;20944;-66
2021/01/27 08:21:28;;;;;;;1.10;1.00;;;0.40;98.00;;;;;;5070946;28;20522;-66
2021/01/27 08:23:56;;;;;;;1.10;1.00;;;0.60;98.00;;;;;;5074219;28;20462;-66
2021/01/27 08:26:55;;;;;;;2.37;1.97;;;0.70;98.00;;;;;;5070576;28;21004;-67
2021/01/27 08:29:32;;;;;;;4.83;1.50;;;0.90;98.00;;;;;;5073584;28;20468;-66
2021/01/27 08:32:27;;;;;;;1.73;1.60;;;0.90;98.00;;;;;;5071313;28;20535;-66
2021/01/27 08:34:55;;;;;;;1.67;1.47;;;0.90;98.00;;;;;;5063695;28;20454;-65
2021/01/27 08:37:25;;;;;;;3.87;2.00;;;0.90;98.00;;;;;;5070676;28;20481;-68
2021/01/27 08:40:12;;;;;;;1.67;1.63;;;1.00;98.00;;;;;;5073765;28;20512;-68
2021/01/27 08:42:43;;;;;;;1.10;0.97;;;1.00;98.00;;;;;;5073357;28;20463;-67
2021/01/27 08:45:29;;;;;;;1.20;1.20;;;1.00;98.00;;;;;;5073286;28;20540;-66
2021/01/27 08:47:58;;;;;;;2.07;1.40;;;1.00;98.00;;;;;;5073418;28;20463;-67
2021/01/27 08:50:43;;;;;;;2.07;1.27;;;1.10;98.00;;;;;;5071351;28;20455;-67
2021/01/27 08:53:12;;;;;;;1.20;1.20;;;1.10;98.00;;;;;;5073350;28;20495;-67
2021/01/27 08:55:59;;;;;;;1.20;1.10;;;1.20;98.00;;;;;;5071037;28;20467;-65
2021/01/27 08:58:38;;;;;;;6.50;2.70;;;1.20;98.00;;;;;;5073136;28;20455;-67
2021/01/27 09:01:12;;;;;;;2.23;1.30;;;1.20;98.00;;;;;;5070690;28;20494;-66
2021/01/27 09:03:59;;;;;;;1.40;1.13;;;1.10;98.00;;;;;;5073192;28;20517;-65
2021/01/27 09:06:41;;;;;;;1.10;0.97;;;1.40;98.00;;;;;;5070945;28;20455;-67
2021/01/27 09:09:15;;;;;;;1.40;1.40;;;3.40;98.00;;;;;;5073064;28;20471;-66
2021/01/27 09:11:43;;;;;;;1.50;1.40;;;3.90;98.00;;;;;;5070706;28;20807;-68
2021/01/27 09:14:14;;;;;;;1.20;1.00;;;3.80;98.00;;;;;;5072860;28;20467;-66
2021/01/27 09:16:43;;;;;;;1.30;1.27;;;3.50;98.00;;;;;;5070705;28;20500;-67
2021/01/27 09:19:15;;;;;;;1.30;1.10;;;3.30;98.00;;;;;;5072615;28;20461;-66
2021/01/27 09:21:43;;;;;;;1.30;1.10;;;2.90;98.00;;;;;;5070086;28;20498;-65
2021/01/27 09:24:21;;;;;;;1.50;1.43;;;2.80;98.00;;;;;;5072869;28;20460;-67
2021/01/27 09:26:50;;;;;;;1.20;1.10;;;2.70;98.00;;;;;;5070405;28;20873;-66
2021/01/27 09:29:21;;;;;;;1.30;1.10;;;2.60;98.00;;;;;;5072439;28;20954;-66
2021/01/27 09:31:48;;;;;;;3.30;1.60;;;2.40;98.00;;;;;;5070137;28;20456;-65
2021/01/27 09:34:33;;;;;;;1.93;1.50;;;2.20;98.00;;;;;;5072542;28;20521;-67
2021/01/27 09:37:02;;;;;;;1.70;1.43;;;2.10;98.00;;;;;;5070006;28;20495;-67
2021/01/27 09:39:32;;;;;;;2.37;1.33;;;2.20;98.00;;;;;;5072385;28;20485;-68
2021/01/27 09:42:10;;;;;;;1.20;1.10;;;2.20;98.00;;;;;;5069762;28;20467;-66
2021/01/27 09:44:38;;;;;;;1.40;1.33;;;2.20;98.00;;;;;;5072209;28;20499;-67
2021/01/27 09:47:11;;;;;;;1.20;1.10;;;2.20;98.00;;;;;;5069773;28;20461;-66
2021/01/27 09:49:39;;;;;;;2.03;1.20;;;2.20;98.00;;;;;;5071999;28;20495;-65
2021/01/27 09:52:11;;;;;;;1.20;1.00;;;2.20;98.00;;;;;;5069829;28;21031;-66
2021/01/27 09:54:40;;;;;;;1.30;1.10;;;2.20;98.00;;;;;;5071970;28;20500;-66
2021/01/27 09:57:12;;;;;;;1.20;1.10;;;2.20;98.00;;;;;;5069621;28;20483;-66
2021/01/27 09:59:40;;;;;;;1.20;0.90;;;2.30;98.00;;;;;;5070888;28;21005;-65
2021/01/27 10:02:12;;;;;;;1.10;1.00;;;2.20;98.00;;;;;;5069348;28;20488;-67
2021/01/27 10:04:40;;;;;;;1.50;1.30;;;2.20;98.00;;;;;;5071874;28;20459;-65
2021/01/27 10:07:11;;;;;;;1.57;1.17;;;2.20;98.00;;;;;;5069828;28;20935;-67
2021/01/27 10:09:43;;;;;;;1.20;1.10;;;2.30;98.00;;;;;;5071601;28;20460;-67
2021/01/27 10:12:18;;;;;;;1.73;1.50;;;2.30;98.00;;;;;;5069175;28;20801;-67
2021/01/27 10:14:48;;;;;;;1.13;1.00;;;2.20;98.00;;;;;;5070339;28;20559;-69
2021/01/27 10:17:25;;;;;;;1.20;1.10;;;2.20;98.00;;;;;;5069587;28;20470;-65
2021/01/27 10:20:00;;;;;;;1.17;1.00;;;2.20;98.00;;;;;;5069923;28;20516;-65
2021/01/27 10:22:29;;;;;;;1.20;1.00;;;2.20;98.00;;;;;;5068936;28;20957;-65
2021/01/27 10:24:59;;;;;;;1.10;1.00;;;2.20;98.00;;;;;;5071397;28;20467;-65
2021/01/27 10:27:33;;;;;;;1.10;0.97;;;2.20;98.00;;;;;;5068666;28;20506;-67
2021/01/27 10:30:04;;;;;;;1.83;1.10;;;2.40;98.00;;;;;;5071324;28;20682;-65
2021/01/27 10:32:39;;;;;;;1.10;1.00;;;2.30;98.00;;;;;;5068661;28;20464;-65
2021/01/27 10:35:31;;;;;;;1.20;1.00;;;2.30;98.00;;;;;;5071211;28;20893;-67
2021/01/27 10:38:18;;;;;;;1.13;0.90;;;2.40;98.00;;;;;;5067293;28;20486;-67
2021/01/27 10:41:09;;;;;;;1.20;0.90;;;2.60;98.00;;;;;;5068154;28;20502;-66
2021/01/27 10:43:36;;;;;;;1.10;0.90;;;2.50;98.00;;;;;;5070996;28;20460;-64
2021/01/27 10:46:22;;;;;;;1.10;1.00;;;2.70;98.00;;;;;;5047044;28;20466;-67
2021/01/27 10:48:49;;;;;;;1.30;1.10;;;2.60;98.00;;;;;;5051226;28;20448;-66
2021/01/27 10:51:15;;;;;;;1.20;0.90;;;2.50;98.00;;;;;;5048734;28;20465;-67
2021/01/27 10:53:43;;;;;;;1.10;0.90;;;2.50;98.00;;;;;;5049596;28;20496;-67
2021/01/27 10:56:18;;;;;;;2.10;1.67;;;2.60;98.00;;;;;;5048137;28;20449;-67
2021/01/27 10:58:45;;;;;;;1.30;1.17;;;2.70;98.00;;;;;;5049726;28;20526;-66
2021/01/27 11:01:12;;;;;;;1.10;1.00;;;2.80;98.00;;;;;;5047916;28;21077;-68
2021/01/27 11:03:39;;;;;;;1.10;0.90;;;2.70;98.00;;;;;;5050806;28;20468;-67
2021/01/27 11:06:12;;;;;;;1.50;1.50;;;2.80;98.00;;;;;;5048523;28;20462;-66
2021/01/27 11:08:42;;;;;;;1.13;1.10;;;2.80;98.00;;;;;;5050065;28;20489;-66
2021/01/27 11:11:09;;;;;;;1.10;1.00;;;2.90;98.00;;;;;;5031138;28;20825;-65
2021/01/27 11:13:36;;;;;;;1.20;1.17;;;3.10;98.00;;;;;;5050724;28;20454;-66
2021/01/27 11:16:07;;;;;;;1.60;1.20;;;3.20;98.00;;;;;;5048077;28;20468;-65
2021/01/27 11:18:33;;;;;;;1.10;1.00;;;3.30;98.00;;;;;;5050808;28;20929;-65
2021/01/27 11:21:01;;;;;;;1.10;1.00;;;3.40;98.00;;;;;;5047245;28;20478;-66
2021/01/27 11:23:28;;;;;;;1.10;0.90;;;3.20;98.00;;;;;;5050781;28;20493;-66
2021/01/27 11:26:04;;;;;;;1.20;0.90;;;3.30;98.00;;;;;;5047402;28;20572;-65
2021/01/27 11:28:31;;;;;;;1.10;0.97;;;3.10;98.00;;;;;;5050771;28;20457;-65
2021/01/27 11:31:11;;;;;;;1.20;1.17;;;3.10;98.00;;;;;;5046971;28;20461;-65
2021/01/27 11:33:38;;;;;;;1.10;0.90;;;2.90;98.00;;;;;;5050740;28;20461;-65
2021/01/27 11:36:09;;;;;;;1.10;1.00;;;2.90;98.00;;;;;;5047910;28;20465;-65
2021/01/27 11:38:36;;;;;;;1.20;1.00;;;2.90;98.00;;;;;;5050800;28;20491;-66
2021/01/27 11:41:06;;;;;;;1.80;1.53;;;2.90;98.00;;;;;;5047691;28;20923;-64
2021/01/27 11:43:32;;;;;;;1.30;1.20;;;2.80;98.00;;;;;;5050806;28;20496;-65
2021/01/27 11:45:59;;;;;;;1.20;0.90;;;2.90;98.00;;;;;;5047986;28;20457;-64
2021/01/27 11:48:25;;;;;;;1.10;0.90;;;3.10;98.00;;;;;;5050427;28;20460;-65
2021/01/27 11:50:52;;;;;;;1.10;0.90;;;3.10;98.00;;;;;;5047550;28;20476;-64
2021/01/27 11:53:20;;;;;;;1.20;0.90;;;3.00;98.00;;;;;;5049272;28;20852;-63
2021/01/27 11:55:46;;;;;;;1.97;1.57;;;2.90;98.00;;;;;;5048421;28;20509;-65
2021/01/27 11:58:13;;;;;;;1.50;1.13;;;2.90;98.00;;;;;;5050520;28;20461;-65
2021/01/27 12:00:49;;;;;;;1.30;1.23;;;3.00;98.00;;;;;;5047970;28;20509;-65
2021/01/27 12:03:17;;;;;;;1.10;0.90;;;2.90;98.00;;;;;;5050245;28;20461;-66
2021/01/27 12:05:45;;;;;;;1.50;1.20;;;2.90;98.00;;;;;;5048048;28;20484;-65
2021/01/27 12:08:12;;;;;;;1.90;1.23;;;3.00;98.00;;;;;;5050380;28;21025;-66
2021/01/27 12:10:39;;;;;;;1.10;1.00;;;2.90;98.00;;;;;;5049730;28;20454;-65
2021/01/27 12:13:06;;;;;;;1.20;1.07;;;2.90;98.00;;;;;;5053948;28;20457;-67
2021/01/27 12:15:33;;;;;;;1.10;0.90;;;3.00;98.00;;;;;;5052553;28;20530;-64
2021/01/27 12:17:59;;;;;;;5.13;1.67;;;3.00;98.00;;;;;;5053450;28;20610;-64
2021/01/27 12:20:27;;;;;;;1.10;0.90;;;3.20;98.00;;;;;;5053780;28;20485;-64
2021/01/27 12:22:54;;;;;;;1.20;1.00;;;3.40;98.00;;;;;;5051533;28;20465;-64
2021/01/27 12:25:20;;;;;;;1.20;1.10;;;3.40;98.00;;;;;;5053692;28;20529;-64
2021/01/27 12:27:48;;;;;;;1.10;0.90;;;3.70;98.00;;;;;;5051438;28;20477;-65
2021/01/27 12:30:17;;;;;;;1.10;0.90;;;3.90;98.00;;;;;;5053410;28;20489;-65
2021/01/27 12:32:43;;;;;;;1.20;0.90;;;4.00;98.00;;;;;;5051495;28;20799;-65
2021/01/27 12:35:12;;;;;;;1.20;1.00;;;4.00;98.00;;;;;;5053814;28;20469;-65
2021/01/27 12:37:38;;;;;;;1.20;0.90;;;4.10;98.00;;;;;;5051066;28;20461;-64
2021/01/27 12:40:08;;;;;;;1.20;1.03;;;4.30;98.00;;;;;;5053772;28;20489;-66
2021/01/27 12:42:35;;;;;;;2.90;1.67;;;4.50;98.00;;;;;;5050865;28;20458;-64
2021/01/27 12:45:03;;;;;;;1.20;0.90;;;4.50;98.00;;;;;;5053543;28;20461;-66
2021/01/27 12:47:30;;;;;;;1.20;0.90;;;4.50;98.00;;;;;;5051272;28;20561;-66
2021/01/27 12:49:56;;;;;;;1.20;1.00;;;4.60;98.00;;;;;;5053355;28;20851;-65
2021/01/27 12:52:23;;;;;;;1.30;1.20;;;4.60;98.00;;;;;;5050865;28;20497;-65
2021/01/27 12:54:49;;;;;;;1.43;1.30;;;4.30;98.00;;;;;;5053219;28;20485;-65
2021/01/27 12:57:16;;;;;;;1.17;0.90;;;4.30;98.00;;;;;;5049592;28;20450;-65
2021/01/27 12:59:42;;;;;;;1.10;0.90;;;4.30;98.00;;;;;;5053048;28;20486;-64
2021/01/27 13:02:10;;;;;;;1.10;0.90;;;4.30;98.00;;;;;;5050425;28;20516;-66
2021/01/27 13:04:37;;;;;;;1.13;1.00;;;4.50;98.00;;;;;;5052915;28;20458;-64
2021/01/27 13:07:04;;;;;;;1.20;1.00;;;4.50;98.00;;;;;;5050646;28;20540;-65
2021/01/27 13:09:30;;;;;;;1.10;0.90;;;4.50;98.00;;;;;;5052719;28;20553;-63
2021/01/27 13:11:57;;;;;;;1.20;0.90;;;4.40;98.00;;;;;;5050823;28;20493;-65
2021/01/27 13:14:23;;;;;;;3.93;1.37;;;4.30;98.00;;;;;;5052468;28;20462;-66
2021/01/27 13:16:51;;;;;;;1.30;1.10;;;4.10;98.00;;;;;;5050379;28;20474;-64
2021/01/27 13:19:18;;;;;;;1.13;1.00;;;4.20;98.00;;;;;;5051859;28;20458;-65
2021/01/27 13:21:45;;;;;;;1.20;0.90;;;4.20;98.00;;;;;;5050020;28;20825;-67
2021/01/27 13:24:12;;;;;;;1.20;1.10;;;4.20;98.00;;;;;;5052584;28;20987;-64